createdAt,value
2019-04-11T00:00:07.574Z,71.86
2019-04-11T00:01:08.003Z,72.10
2019-04-11T00:02:08.620Z,72.52
2019-04-11T00:03:07.538Z,71.79
2019-04-11T00:04:08.231Z,72.52
2019-04-11T00:05:07.505Z,72.31
2019-04-11T00:06:07.566Z,72.72
2019-04-11T00:07:07.871Z,72.66
2019-04-11T00:08:08.018Z,73.07
2019-04-11T00:09:08.197Z,72.86
2019-04-11T00:10:08.288Z,73.38
2019-04-11T00:11:07.438Z,73.38
2019-04-11T00:12:08.370Z,73.18
2019-04-11T00:13:17.229Z,73.38
2019-04-11T00:14:08.531Z,73.49
2019-04-11T00:15:08.530Z,73.52
2019-04-11T00:16:07.384Z,74.04
2019-04-11T00:17:07.816Z,74.04
2019-04-11T00:18:08.272Z,74.15
2019-04-11T00:19:07.400Z,73.83
2019-04-11T00:20:07.643Z,74.25
2019-04-11T00:21:07.325Z,73.97
2019-04-11T00:22:07.381Z,74.46
2019-04-11T00:23:08.112Z,74.66
2019-04-11T00:24:07.314Z,74.66
2019-04-11T00:25:07.419Z,75.32
2019-04-11T00:26:08.326Z,74.77
2019-04-11T00:27:07.265Z,74.60
2019-04-11T00:28:07.789Z,74.80
2019-04-11T00:29:07.261Z,74.91
2019-04-11T00:30:08.088Z,74.91
2019-04-11T00:31:08.366Z,74.60
2019-04-11T00:32:09.146Z,74.70
2019-04-11T00:33:07.869Z,74.70
2019-04-11T00:34:07.197Z,75.32
2019-04-11T00:35:07.284Z,75.32
2019-04-11T00:36:08.238Z,75.22
2019-04-11T00:37:07.171Z,75.22
2019-04-11T00:38:07.754Z,75.36
2019-04-11T00:39:07.680Z,75.32
2019-04-11T00:40:07.139Z,75.32
2019-04-11T00:41:07.976Z,75.26
2019-04-11T00:42:07.233Z,75.26
2019-04-11T00:43:07.408Z,75.57
2019-04-11T00:44:07.360Z,76.30
2019-04-11T00:45:07.605Z,76.72
2019-04-11T00:46:07.892Z,75.98
2019-04-11T00:47:07.052Z,76.61
2019-04-11T00:48:07.100Z,76.54
2019-04-11T00:49:07.964Z,76.51
2019-04-11T00:50:07.393Z,76.54
2019-04-11T00:51:07.705Z,76.96
2019-04-11T00:52:07.022Z,77.27
2019-04-11T00:53:07.008Z,78.14
2019-04-11T00:54:06.982Z,78.25
2019-04-11T00:55:07.213Z,78.04
2019-04-11T00:56:08.167Z,78.14
2019-04-11T00:57:06.951Z,78.04
2019-04-11T00:58:07.510Z,78.66
2019-04-11T00:59:07.967Z,78.45
2019-04-11T01:00:07.045Z,78.77
2019-04-11T01:01:07.244Z,78.91
2019-04-11T01:02:07.304Z,78.49
2019-04-11T01:03:06.906Z,79.22
2019-04-11T01:04:07.609Z,79.53
2019-04-11T01:05:07.555Z,79.64
2019-04-11T01:06:06.888Z,79.57
2019-04-11T01:07:06.936Z,80.09
2019-04-11T01:08:07.272Z,80.27
2019-04-11T01:09:06.840Z,80.09
2019-04-11T01:10:06.816Z,80.62
2019-04-11T01:11:07.804Z,80.37
2019-04-11T01:12:07.870Z,80.51
2019-04-11T01:13:07.134Z,80.62
2019-04-11T01:14:07.758Z,80.30
2019-04-11T01:15:07.035Z,80.62
2019-04-11T01:16:07.103Z,80.41
2019-04-11T01:17:07.853Z,80.30
2019-04-11T01:18:06.742Z,79.99
2019-04-11T01:19:06.749Z,80.72
2019-04-11T01:20:07.011Z,80.51
2019-04-11T01:21:06.726Z,80.51
2019-04-11T01:22:07.729Z,81.13
2019-04-11T01:23:06.886Z,80.72
2019-04-11T01:24:07.220Z,81.24
2019-04-11T01:25:06.667Z,80.93
2019-04-11T01:26:06.680Z,80.82
2019-04-11T01:27:07.704Z,80.72
2019-04-11T01:28:06.817Z,80.72
2019-04-11T01:29:07.172Z,80.93
2019-04-11T01:30:06.616Z,81.03
2019-04-11T01:31:06.618Z,80.62
2019-04-11T01:32:06.625Z,80.62
2019-04-11T01:33:06.723Z,80.20
2019-04-11T01:34:06.597Z,80.62
2019-04-11T01:35:06.882Z,80.72
2019-04-11T01:36:07.034Z,80.82
2019-04-11T01:37:07.227Z,80.30
2019-04-11T01:38:06.524Z,81.13
2019-04-11T01:39:06.512Z,81.13
2019-04-11T01:40:07.676Z,81.13
2019-04-11T01:41:06.657Z,80.93
2019-04-11T01:42:07.031Z,80.72
2019-04-11T01:43:06.484Z,81.03
2019-04-11T01:44:07.560Z,81.45
2019-04-11T01:45:07.475Z,81.45
2019-04-11T01:46:07.713Z,81.18
2019-04-11T01:47:06.705Z,81.18
2019-04-11T01:48:07.068Z,81.18
2019-04-11T01:49:06.488Z,81.07
2019-04-11T01:50:06.393Z,81.18
2019-04-11T01:51:07.478Z,81.18
2019-04-11T01:52:06.563Z,81.18
2019-04-11T01:53:06.836Z,81.63
2019-04-11T01:54:06.350Z,81.73
2019-04-11T01:55:06.593Z,81.95
2019-04-11T01:56:07.212Z,81.95
2019-04-11T01:57:06.468Z,82.05
2019-04-11T01:58:06.636Z,81.90
2019-04-11T01:59:06.995Z,81.95
2019-04-11T02:00:06.288Z,81.73
2019-04-11T02:01:06.450Z,81.95
2019-04-11T02:02:07.417Z,81.95
2019-04-11T02:03:06.760Z,82.15
2019-04-11T02:04:06.319Z,81.95
2019-04-11T02:05:06.262Z,82.05
2019-04-11T02:06:06.229Z,82.67
2019-04-11T02:07:06.639Z,82.15
2019-04-11T02:08:07.101Z,82.67
2019-04-11T02:09:06.192Z,82.99
2019-04-11T02:10:06.397Z,83.30
2019-04-11T02:11:07.187Z,83.20
2019-04-11T02:12:06.179Z,83.20
2019-04-11T02:13:06.168Z,83.40
2019-04-11T02:14:13.536Z,83.20
2019-04-11T02:15:08.141Z,83.20
2019-04-11T02:16:06.334Z,82.99
2019-04-11T02:17:06.391Z,83.20
2019-04-11T02:18:06.131Z,82.89
2019-04-11T02:19:06.085Z,83.23
2019-04-11T02:20:06.997Z,83.09
2019-04-11T02:21:06.323Z,83.30
2019-04-11T02:22:06.311Z,83.20
2019-04-11T02:23:06.779Z,83.20
2019-04-11T02:24:06.039Z,82.92
2019-04-11T02:25:06.071Z,83.34
2019-04-11T02:26:07.062Z,83.03
2019-04-11T02:27:06.509Z,83.20
2019-04-11T02:28:06.573Z,83.13
2019-04-11T02:29:06.032Z,82.71
2019-04-11T02:30:05.984Z,82.82
2019-04-11T02:31:09.082Z,82.82
2019-04-11T02:32:07.456Z,82.92
2019-04-11T02:33:07.233Z,83.23
2019-04-11T02:34:08.317Z,83.23
2019-04-11T02:35:07.817Z,82.92
2019-04-11T02:36:07.950Z,82.92
2019-04-11T02:37:07.052Z,83.34
2019-04-11T02:38:07.626Z,82.92
2019-04-11T02:39:11.740Z,83.27
2019-04-11T02:40:07.558Z,83.90
2019-04-11T02:41:07.975Z,83.90
2019-04-11T02:42:06.518Z,83.48
2019-04-11T02:43:07.781Z,84.00
2019-04-11T02:44:26.504Z,83.80
2019-04-11T02:45:22.403Z,83.80
2019-04-11T02:46:17.426Z,84.00
2019-04-11T02:47:11.497Z,84.22
2019-04-11T02:48:09.297Z,84.39
2019-04-11T02:49:06.053Z,84.00
2019-04-11T02:50:06.608Z,83.80
2019-04-11T02:51:07.559Z,84.32
2019-04-11T02:52:07.124Z,84.63
2019-04-11T02:53:07.284Z,84.53
2019-04-11T02:54:06.909Z,84.42
2019-04-11T02:55:07.791Z,85.05
2019-04-11T02:56:06.332Z,84.53
2019-04-11T02:57:05.907Z,84.32
2019-04-11T02:58:07.597Z,84.53
2019-04-11T02:59:05.706Z,84.74
2019-04-11T03:00:06.475Z,84.63
2019-04-11T03:01:07.410Z,85.05
2019-04-11T03:02:06.979Z,84.67
2019-04-11T03:03:06.228Z,84.78
2019-04-11T03:04:07.261Z,85.51
2019-04-11T03:05:07.129Z,85.61
2019-04-11T03:06:07.088Z,84.99
2019-04-11T03:07:06.040Z,85.16
2019-04-11T03:08:10.632Z,84.53
2019-04-11T03:09:07.177Z,84.63
2019-04-11T03:10:07.195Z,85.05
2019-04-11T03:11:07.217Z,84.11
2019-04-11T03:12:07.200Z,84.32
2019-04-11T03:13:05.557Z,84.53
2019-04-11T03:14:05.523Z,84.32
2019-04-11T03:15:23.978Z,84.00
2019-04-11T03:16:23.740Z,84.00
2019-04-11T03:17:14.777Z,84.42
2019-04-11T03:18:09.467Z,85.16
2019-04-11T03:19:22.547Z,84.53
2019-04-11T03:20:15.497Z,84.53
2019-04-11T03:21:13.051Z,84.67
2019-04-11T03:22:08.106Z,84.25
2019-04-11T03:23:07.977Z,84.56
2019-04-11T03:24:08.304Z,84.78
2019-04-11T03:25:07.508Z,84.78
2019-04-11T03:26:07.367Z,84.88
2019-04-11T03:27:07.192Z,84.78
2019-04-11T03:28:09.599Z,85.51
2019-04-11T03:29:08.083Z,85.41
2019-04-11T03:30:09.942Z,86.66
2019-04-11T03:31:42.569Z,86.55
2019-04-11T03:35:02.923Z,86.24
2019-04-11T03:36:00.049Z,86.38
2019-04-11T03:37:00.012Z,86.18
2019-04-11T03:37:26.094Z,86.18
2019-04-11T03:38:31.592Z,86.28
2019-04-11T03:39:28.101Z,86.18
2019-04-11T03:40:27.088Z,86.28
2019-04-11T03:41:23.498Z,86.49
2019-04-11T03:42:20.489Z,86.80
2019-04-11T03:43:23.118Z,87.01
2019-04-11T03:44:15.873Z,87.16
2019-04-11T03:45:25.558Z,87.26
2019-04-11T03:46:24.929Z,87.58
2019-04-11T03:47:20.343Z,87.37
2019-04-11T03:48:22.141Z,87.68
2019-04-11T03:49:20.981Z,87.58
2019-04-11T03:50:13.021Z,87.79
2019-04-11T03:51:06.128Z,87.68
2019-04-11T03:52:05.831Z,87.89
2019-04-11T03:53:08.224Z,87.68
2019-04-11T03:54:05.223Z,87.58
2019-04-11T03:55:08.216Z,88.10
2019-04-11T03:56:05.243Z,87.79
2019-04-11T03:57:05.523Z,88.62
2019-04-11T03:58:06.268Z,88.21
2019-04-11T03:59:06.156Z,87.99
2019-04-11T04:00:06.368Z,88.52
2019-04-11T04:01:08.451Z,88.10
2019-04-11T04:02:07.674Z,88.52
2019-04-11T04:03:06.144Z,88.52
2019-04-11T04:04:06.401Z,88.73
2019-04-11T04:05:06.669Z,88.84
2019-04-11T04:06:06.677Z,88.84
2019-04-11T04:07:06.791Z,88.84
2019-04-11T04:08:06.094Z,88.42
2019-04-11T04:09:06.498Z,88.84
2019-04-11T04:10:06.980Z,88.24
2019-04-11T04:11:06.166Z,88.31
2019-04-11T04:12:05.096Z,88.62
2019-04-11T04:13:07.678Z,88.46
2019-04-11T04:14:05.916Z,88.77
2019-04-11T04:15:07.198Z,88.56
2019-04-11T04:16:17.060Z,88.10
2019-04-11T04:17:06.980Z,88.14
2019-04-11T04:18:05.867Z,88.46
2019-04-11T04:19:05.413Z,88.46
2019-04-11T04:20:05.188Z,88.98
2019-04-11T04:21:06.972Z,88.46
2019-04-11T04:22:05.112Z,88.87
2019-04-11T04:23:05.244Z,88.42
2019-04-11T04:24:06.146Z,88.56
2019-04-11T04:25:04.804Z,88.46
2019-04-11T04:26:07.334Z,88.10
2019-04-11T04:27:07.023Z,88.24
2019-04-11T04:28:05.473Z,88.10
2019-04-11T04:29:04.734Z,88.04
2019-04-11T04:30:05.886Z,88.52
2019-04-11T04:31:06.726Z,88.21
2019-04-11T04:32:05.432Z,87.79
2019-04-11T04:33:05.036Z,87.89
2019-04-11T04:34:04.704Z,87.89
2019-04-11T04:35:07.251Z,87.79
2019-04-11T04:36:08.839Z,88.62
2019-04-11T04:37:06.404Z,87.68
2019-04-11T04:38:05.197Z,87.89
2019-04-11T04:39:05.741Z,87.68
2019-04-11T04:40:24.097Z,87.68
2019-04-11T04:41:14.755Z,88.62
2019-04-11T04:42:11.393Z,88.52
2019-04-11T04:43:07.661Z,88.42
2019-04-11T04:44:06.317Z,87.26
2019-04-11T04:45:05.628Z,87.37
2019-04-11T04:46:25.110Z,87.16
2019-04-11T04:47:17.869Z,87.05
2019-04-11T04:48:11.102Z,87.74
2019-04-11T04:49:06.964Z,87.23
2019-04-11T04:50:06.158Z,86.91
2019-04-11T04:51:08.904Z,86.91
2019-04-11T04:52:06.082Z,86.80
2019-04-11T04:53:05.180Z,87.01
2019-04-11T04:54:05.881Z,87.01
2019-04-11T04:55:06.146Z,86.38
2019-04-11T04:56:04.548Z,86.60
2019-04-11T04:57:05.038Z,86.49
2019-04-11T04:58:04.901Z,86.49
2019-04-11T04:59:05.345Z,87.01
2019-04-11T05:00:05.481Z,86.24
2019-04-11T05:01:06.844Z,86.04
2019-04-11T05:02:06.639Z,86.07
2019-04-11T05:03:05.527Z,86.04
2019-04-11T05:04:04.887Z,86.66
2019-04-11T05:05:06.022Z,86.24
2019-04-11T05:06:04.459Z,86.45
2019-04-11T05:07:05.295Z,86.49
2019-04-11T05:08:06.124Z,85.82
2019-04-11T05:09:04.437Z,86.38
2019-04-11T05:10:06.182Z,86.60
2019-04-11T05:11:04.657Z,86.60
2019-04-11T05:12:05.490Z,86.49
2019-04-11T05:13:05.683Z,86.70
2019-04-11T05:14:05.085Z,86.38
2019-04-11T05:15:04.430Z,87.12
2019-04-11T05:16:14.526Z,86.24
2019-04-11T05:17:06.611Z,86.24
2019-04-11T05:18:04.283Z,86.24
2019-04-11T05:19:04.558Z,86.04
2019-04-11T05:20:05.076Z,85.78
2019-04-11T05:21:05.274Z,86.35
2019-04-11T05:22:04.299Z,86.24
2019-04-11T05:23:04.381Z,86.35
2019-04-11T05:24:04.216Z,86.55
2019-04-11T05:25:05.464Z,85.72
2019-04-11T05:26:04.508Z,85.26
2019-04-11T05:27:04.244Z,85.36
2019-04-11T05:28:04.432Z,85.47
2019-04-11T05:29:04.926Z,85.16
2019-04-11T05:30:04.989Z,85.68
2019-04-11T05:31:04.160Z,85.36
2019-04-11T05:32:05.102Z,84.95
2019-04-11T05:33:05.937Z,84.53
2019-04-11T05:34:04.133Z,84.22
2019-04-11T05:35:04.830Z,83.97
2019-04-11T05:36:04.088Z,84.28
2019-04-11T05:37:04.065Z,83.65
2019-04-11T05:38:04.893Z,83.44
2019-04-11T05:39:04.008Z,83.83
2019-04-11T05:40:05.113Z,83.76
2019-04-11T05:41:04.316Z,83.93
2019-04-11T05:42:05.077Z,82.99
2019-04-11T05:43:04.060Z,83.40
2019-04-11T05:44:08.861Z,83.20
2019-04-11T05:45:05.382Z,82.99
2019-04-11T05:46:22.894Z,82.57
2019-04-11T05:47:06.487Z,82.57
2019-04-11T05:48:05.148Z,82.57
2019-04-11T05:49:04.221Z,82.26
2019-04-11T05:50:08.256Z,82.36
2019-04-11T05:51:04.892Z,82.01
2019-04-11T05:52:04.037Z,82.36
2019-04-11T05:53:04.092Z,82.22
2019-04-11T05:54:07.395Z,82.12
2019-04-11T05:55:04.901Z,82.26
2019-04-11T05:56:03.824Z,82.22
2019-04-11T05:57:03.892Z,81.38
2019-04-11T05:58:08.605Z,81.70
2019-04-11T05:59:05.616Z,81.90
2019-04-11T06:00:03.832Z,81.80
2019-04-11T06:01:03.768Z,81.35
2019-04-11T06:02:07.234Z,81.13
2019-04-11T06:03:03.951Z,80.41
2019-04-11T06:04:03.738Z,80.41
2019-04-11T06:05:03.794Z,80.30
2019-04-11T06:06:04.779Z,80.30
2019-04-11T06:07:07.852Z,80.30
2019-04-11T06:08:05.428Z,80.89
2019-04-11T06:09:04.062Z,80.79
2019-04-11T06:10:08.571Z,80.68
2019-04-11T06:11:06.259Z,80.79
2019-04-11T06:12:03.819Z,80.16
2019-04-11T06:13:04.572Z,80.47
2019-04-11T06:14:05.671Z,80.05
2019-04-11T06:15:03.947Z,80.44
2019-04-11T06:16:04.662Z,79.60
2019-04-11T06:17:03.620Z,78.77
2019-04-11T06:18:04.874Z,78.94
2019-04-11T06:19:04.003Z,78.63
2019-04-11T06:20:04.046Z,78.52
2019-04-11T06:21:03.955Z,78.11
2019-04-11T06:22:04.571Z,77.37
2019-04-11T06:23:04.872Z,78.52
2019-04-11T06:24:03.641Z,78.21
2019-04-11T06:25:04.107Z,77.86
2019-04-11T06:26:06.717Z,77.23
2019-04-11T06:27:04.046Z,76.09
2019-04-11T06:28:04.189Z,76.51
2019-04-11T06:29:14.646Z,76.20
2019-04-11T06:30:05.528Z,76.57
2019-04-11T06:31:04.887Z,76.16
2019-04-11T06:32:04.154Z,75.95
2019-04-11T06:33:04.597Z,76.33
2019-04-11T06:34:03.423Z,75.74
2019-04-11T06:35:04.000Z,75.43
2019-04-11T06:36:04.277Z,74.87
2019-04-11T06:37:03.638Z,74.87
2019-04-11T06:38:03.462Z,74.35
2019-04-11T06:39:05.152Z,73.90
2019-04-11T06:40:04.195Z,74.43
2019-04-11T06:41:03.405Z,74.21
2019-04-11T06:42:04.756Z,73.87
2019-04-11T06:43:03.641Z,74.11
2019-04-11T06:44:04.686Z,73.73
2019-04-11T06:45:04.098Z,72.80
2019-04-11T06:46:03.294Z,72.07
2019-04-11T06:47:03.856Z,71.72
2019-04-11T06:48:03.299Z,71.38
2019-04-11T06:49:04.401Z,70.54
2019-04-11T06:50:03.279Z,70.31
2019-04-11T06:51:04.150Z,70.20
2019-04-11T06:52:04.328Z,70.10
2019-04-11T06:53:04.396Z,70.20
2019-04-11T06:54:04.287Z,69.89
2019-04-11T06:55:04.480Z,69.92
2019-04-11T06:56:03.604Z,69.68
2019-04-11T06:57:04.083Z,69.89
2019-04-11T06:58:03.193Z,68.62
2019-04-11T06:59:03.977Z,68.82
2019-04-11T07:00:05.154Z,67.89
2019-04-11T07:01:03.555Z,68.72
2019-04-11T07:02:11.529Z,68.90
2019-04-11T07:03:05.461Z,67.99
2019-04-11T07:04:03.142Z,68.20
2019-04-11T07:05:04.210Z,68.27
2019-04-11T07:06:03.098Z,68.48
2019-04-11T07:07:04.403Z,68.17
2019-04-11T07:08:03.113Z,68.17
2019-04-11T07:09:03.347Z,68.03
2019-04-11T07:10:04.119Z,67.55
2019-04-11T07:11:03.615Z,67.86
2019-04-11T07:12:03.511Z,67.72
2019-04-11T07:13:03.467Z,68.13
2019-04-11T07:14:04.115Z,68.13
2019-04-11T07:15:02.991Z,67.93
2019-04-11T07:16:02.982Z,67.72
2019-04-11T07:17:06.139Z,68.34
2019-04-11T07:18:04.828Z,68.07
2019-04-11T07:19:02.986Z,68.17
2019-04-11T07:20:02.942Z,68.27
2019-04-11T07:21:03.087Z,67.55
2019-04-11T07:22:02.909Z,67.41
2019-04-11T07:23:03.753Z,67.72
2019-04-11T07:24:03.274Z,67.30
2019-04-11T07:25:03.969Z,68.00
2019-04-11T07:26:02.904Z,67.79
2019-04-11T07:27:03.583Z,67.79
2019-04-11T07:28:03.710Z,68.41
2019-04-11T07:29:02.938Z,67.27
2019-04-11T07:30:03.138Z,67.90
2019-04-11T07:31:02.964Z,67.27
2019-04-11T07:32:02.806Z,66.86
2019-04-11T07:33:03.910Z,67.27
2019-04-11T07:34:02.799Z,66.65
2019-04-11T07:35:04.659Z,68.28
2019-04-11T07:36:03.888Z,67.86
2019-04-11T07:37:02.852Z,66.93
2019-04-11T07:38:03.119Z,66.21
2019-04-11T07:39:03.637Z,64.97
2019-04-11T07:40:03.124Z,65.80
2019-04-11T07:41:04.107Z,65.77
2019-04-11T07:42:04.724Z,65.07
2019-04-11T07:43:08.181Z,65.35
2019-04-11T07:44:04.284Z,66.28
2019-04-11T07:45:02.677Z,65.94
2019-04-11T07:46:02.829Z,64.39
2019-04-11T07:47:15.675Z,64.70
2019-04-11T07:48:03.655Z,64.28
2019-04-11T07:49:03.769Z,64.28
2019-04-11T07:50:02.686Z,65.53
2019-04-11T07:51:02.605Z,65.08
2019-04-11T07:52:02.660Z,65.11
2019-04-11T07:53:04.879Z,63.95
2019-04-11T07:54:02.713Z,64.59
2019-04-11T07:55:02.692Z,64.36
2019-04-11T07:56:03.613Z,65.19
2019-04-11T07:57:03.860Z,64.15
2019-04-11T07:58:02.528Z,63.81
2019-04-11T07:59:02.908Z,63.12
2019-04-11T08:00:03.789Z,63.40
2019-04-11T08:01:03.612Z,63.19
2019-04-11T08:02:03.626Z,63.29
2019-04-11T08:03:02.538Z,62.88
2019-04-11T08:04:03.762Z,63.50
2019-04-11T08:05:02.482Z,62.77
2019-04-11T08:06:03.029Z,62.88
2019-04-11T08:07:04.357Z,62.88
2019-04-11T08:08:04.819Z,62.77
2019-04-11T08:09:03.124Z,61.82
2019-04-11T08:10:02.561Z,60.89
2019-04-11T08:11:02.476Z,61.99
2019-04-11T08:12:02.495Z,60.65
2019-04-11T08:13:02.473Z,59.72
2019-04-11T08:14:02.358Z,60.86
2019-04-11T08:15:02.372Z,61.79
2019-04-11T08:16:02.338Z,61.27
2019-04-11T08:17:03.675Z,60.55
2019-04-11T08:18:02.431Z,61.48
2019-04-11T08:19:03.491Z,61.89
2019-04-11T08:20:03.152Z,61.89
2019-04-11T08:21:02.305Z,61.27
2019-04-11T08:22:03.031Z,61.17
2019-04-11T08:23:03.404Z,61.07
2019-04-11T08:24:02.433Z,59.72
2019-04-11T08:25:02.251Z,60.55
2019-04-11T08:26:03.981Z,61.17
2019-04-11T08:27:02.977Z,61.48
2019-04-11T08:28:05.913Z,61.04
2019-04-11T08:29:08.956Z,60.52
2019-04-11T08:30:02.702Z,60.39
2019-04-11T08:31:03.398Z,60.08
2019-04-11T08:32:02.677Z,60.70
2019-04-11T08:33:02.434Z,60.08
2019-04-11T08:34:02.786Z,60.08
2019-04-11T08:35:02.139Z,59.67
2019-04-11T08:36:02.340Z,58.99
2019-04-11T08:37:03.234Z,60.10
2019-04-11T08:38:02.768Z,58.73
2019-04-11T08:39:02.107Z,57.81
2019-04-11T08:40:02.102Z,57.57
2019-04-11T08:41:03.059Z,58.16
2019-04-11T08:42:03.177Z,56.85
2019-04-11T08:43:02.635Z,56.72
2019-04-11T08:44:02.070Z,56.62
2019-04-11T08:45:02.038Z,56.31
2019-04-11T08:46:02.593Z,56.38
2019-04-11T08:47:02.549Z,56.59
2019-04-11T08:48:02.513Z,56.08
2019-04-11T08:49:03.661Z,55.54
2019-04-11T08:50:03.864Z,55.13
2019-04-11T08:51:03.044Z,54.69
2019-04-11T08:52:01.992Z,55.21
2019-04-11T08:53:02.578Z,55.18
2019-04-11T08:54:01.938Z,54.33
2019-04-11T08:55:02.271Z,53.89
2019-04-11T08:56:03.707Z,52.31
2019-04-11T08:57:01.907Z,51.26
2019-04-11T08:58:02.416Z,49.39
2019-04-11T08:59:02.830Z,50.46
2019-04-11T09:00:02.241Z,51.66
2019-04-11T09:01:01.883Z,51.61
2019-04-11T09:02:02.632Z,51.87
2019-04-11T09:03:01.865Z,51.15
2019-04-11T09:04:06.820Z,51.23
2019-04-11T09:05:09.695Z,50.18
2019-04-11T09:06:03.224Z,49.26
2019-04-11T09:07:03.316Z,49.66
2019-04-11T09:08:02.401Z,49.26
2019-04-11T09:09:02.819Z,48.74
2019-04-11T09:10:02.079Z,48.82
2019-04-11T09:11:01.776Z,48.22
2019-04-11T09:12:02.514Z,49.64
2019-04-11T09:13:02.856Z,48.80
2019-04-11T09:14:01.937Z,47.28
2019-04-11T09:15:02.538Z,47.24
2019-04-11T09:16:01.751Z,46.50
2019-04-11T09:17:01.844Z,46.50
2019-04-11T09:18:06.096Z,46.70
2019-04-11T09:19:02.480Z,45.90
2019-04-11T09:20:01.657Z,43.49
2019-04-11T09:21:02.376Z,45.76
2019-04-11T09:22:01.718Z,46.48
2019-04-11T09:23:01.696Z,45.68
2019-04-11T09:24:01.912Z,46.62
2019-04-11T09:25:01.605Z,47.06
2019-04-11T09:26:01.804Z,48.29
2019-04-11T09:27:02.423Z,47.27
2019-04-11T09:28:02.789Z,47.16
2019-04-11T09:29:01.832Z,46.65
2019-04-11T09:30:02.501Z,46.67
2019-04-11T09:31:01.560Z,47.29
2019-04-11T09:32:02.259Z,47.19
2019-04-11T09:33:01.557Z,48.32
2019-04-11T09:34:01.677Z,48.01
2019-04-11T09:35:01.875Z,48.42
2019-04-11T09:36:01.770Z,47.29
2019-04-11T09:37:01.475Z,45.85
2019-04-11T09:38:02.205Z,45.78
2019-04-11T09:39:02.503Z,44.94
2019-04-11T09:40:01.754Z,44.92
2019-04-11T09:41:01.432Z,42.42
2019-04-11T09:42:01.438Z,42.50
2019-04-11T09:43:01.759Z,42.16
2019-04-11T09:44:01.401Z,41.50
2019-04-11T09:45:01.470Z,41.49
2019-04-11T09:46:01.951Z,41.24
2019-04-11T09:47:01.421Z,42.38
2019-04-11T09:48:08.526Z,40.55
2019-04-11T09:49:02.544Z,40.03
2019-04-11T09:50:02.366Z,38.21
2019-04-11T09:51:01.338Z,38.11
2019-04-11T09:52:02.410Z,39.87
2019-04-11T09:53:01.621Z,40.36
2019-04-11T09:54:01.561Z,38.34
2019-04-11T09:55:01.283Z,39.48
2019-04-11T09:56:01.298Z,40.08
2019-04-11T09:57:02.286Z,40.46
2019-04-11T09:58:02.789Z,39.64
2019-04-11T09:59:02.332Z,40.69
2019-04-11T10:00:01.842Z,39.48
2019-04-11T10:01:01.668Z,40.21
2019-04-11T10:02:02.383Z,40.84
2019-04-11T10:03:01.200Z,39.89
2019-04-11T10:04:01.564Z,40.26
2019-04-11T10:05:02.629Z,40.01
2019-04-11T10:06:01.162Z,40.12
2019-04-11T10:07:01.313Z,37.67
2019-04-11T10:08:02.209Z,38.39
2019-04-11T10:09:01.818Z,39.10
2019-04-11T10:10:02.412Z,38.67
2019-04-11T10:11:01.779Z,38.76
2019-04-11T10:12:02.310Z,38.26
2019-04-11T10:13:01.103Z,39.30
2019-04-11T10:14:01.704Z,38.39
2019-04-11T10:15:01.115Z,38.98
2019-04-11T10:16:01.896Z,37.63
2019-04-11T10:17:01.130Z,38.06
2019-04-11T10:18:01.082Z,39.79
2019-04-11T10:19:01.039Z,38.59
2019-04-11T10:20:02.696Z,39.30
2019-04-11T10:21:01.304Z,39.49
2019-04-11T10:22:00.998Z,37.24
2019-04-11T10:23:01.980Z,38.08
2019-04-11T10:24:01.085Z,39.39
2019-04-11T10:25:01.084Z,38.14
2019-04-11T10:26:01.479Z,38.33
2019-04-11T10:27:00.938Z,38.76
2019-04-11T10:28:00.976Z,37.82
2019-04-11T10:29:02.189Z,37.53
2019-04-11T10:30:00.939Z,37.74
2019-04-11T10:31:02.022Z,37.62
2019-04-11T10:32:01.186Z,38.51
2019-04-11T10:33:00.972Z,38.23
2019-04-11T10:34:01.613Z,37.33
2019-04-11T10:35:01.863Z,37.45
2019-04-11T10:36:02.925Z,37.33
2019-04-11T10:37:01.324Z,36.22
2019-04-11T10:38:00.832Z,37.21
2019-04-11T10:39:00.874Z,35.83
2019-04-11T10:40:01.878Z,36.75
2019-04-11T10:41:00.956Z,36.04
2019-04-11T10:42:00.780Z,36.95
2019-04-11T10:43:01.447Z,35.51
2019-04-11T10:44:01.408Z,36.02
2019-04-11T10:45:00.755Z,35.82
2019-04-11T10:46:00.854Z,35.51
2019-04-11T10:47:01.885Z,36.05
2019-04-11T10:48:01.232Z,35.83
2019-04-11T10:49:01.213Z,36.04
2019-04-11T10:50:00.909Z,37.01
2019-04-11T10:51:00.689Z,38.04
2019-04-11T10:52:00.707Z,35.82
2019-04-11T10:53:00.735Z,38.24
2019-04-11T10:54:02.923Z,36.08
2019-04-11T10:55:00.880Z,37.72
2019-04-11T10:56:00.629Z,36.97
2019-04-11T10:57:00.617Z,37.17
2019-04-11T10:58:00.640Z,35.41
2019-04-11T10:59:01.666Z,36.02
2019-04-11T11:00:00.743Z,35.31
2019-04-11T11:01:01.823Z,35.90
2019-04-11T11:02:00.560Z,35.39
2019-04-11T11:03:00.556Z,35.61
2019-04-11T11:04:01.155Z,35.63
2019-04-11T11:05:01.083Z,35.44
2019-04-11T11:06:00.566Z,37.26
2019-04-11T11:07:00.504Z,37.36
2019-04-11T11:08:01.336Z,36.73
2019-04-11T11:09:00.495Z,36.95
2019-04-11T11:10:00.802Z,37.46
2019-04-11T11:11:00.464Z,37.26
2019-04-11T11:12:00.877Z,37.38
2019-04-11T11:13:01.414Z,35.97
2019-04-11T11:14:00.498Z,36.77
2019-04-11T11:15:00.970Z,37.16
2019-04-11T11:16:00.408Z,36.95
2019-04-11T11:17:00.417Z,37.16
2019-04-11T11:18:31.029Z,37.05
2019-04-11T11:19:29.522Z,37.80
2019-04-11T11:20:13.816Z,38.11
2019-04-11T11:21:03.838Z,37.16
2019-04-11T11:22:02.436Z,36.88
2019-04-11T11:23:00.334Z,38.19
2019-04-11T11:24:00.828Z,38.29
2019-04-11T11:25:00.313Z,37.56
2019-04-11T11:26:00.621Z,37.14
2019-04-11T11:27:02.925Z,36.08
2019-04-11T11:28:02.892Z,36.39
2019-04-11T11:29:05.291Z,35.58
2019-04-11T11:30:04.026Z,35.77
2019-04-11T11:31:00.254Z,35.07
2019-04-11T11:32:00.810Z,35.88
2019-04-11T11:33:00.229Z,35.51
2019-04-11T11:34:00.219Z,36.12
2019-04-11T11:35:01.136Z,36.61
2019-04-11T11:36:02.330Z,36.07
2019-04-11T11:37:00.651Z,35.99
2019-04-11T11:38:00.201Z,36.41
2019-04-11T11:39:00.357Z,35.07
2019-04-11T11:40:04.885Z,35.97
2019-04-11T11:41:01.142Z,35.88
2019-04-11T11:42:00.194Z,36.19
2019-04-11T11:43:00.982Z,36.00
2019-04-11T11:44:00.206Z,35.58
2019-04-11T11:45:02.391Z,35.38
2019-04-11T11:46:00.905Z,36.51
2019-04-11T11:47:02.221Z,36.08
2019-04-11T11:48:00.070Z,36.90
2019-04-11T11:49:02.074Z,35.38
2019-04-11T11:50:02.692Z,35.83
2019-04-11T11:51:01.198Z,37.45
2019-04-11T11:52:00.469Z,36.69
2019-04-11T11:53:04.865Z,36.07
2019-04-11T11:54:00.999Z,36.34
2019-04-11T11:55:00.010Z,37.17
2019-04-11T11:55:59.986Z,37.75
2019-04-11T11:56:59.973Z,37.14
2019-04-11T11:58:00.818Z,37.54
2019-04-11T11:59:01.109Z,37.43
2019-04-11T12:00:00.768Z,35.90
2019-04-11T12:01:03.592Z,37.24
2019-04-11T12:02:02.262Z,36.73
2019-04-11T12:03:01.914Z,36.92
2019-04-11T12:04:02.675Z,36.61
2019-04-11T12:05:00.299Z,35.92
2019-04-11T12:06:00.912Z,35.49
2019-04-11T12:07:03.639Z,36.19
2019-04-11T12:08:00.460Z,35.70
2019-04-11T12:09:00.337Z,35.56
2019-04-11T12:10:00.686Z,35.85
2019-04-11T12:10:59.821Z,36.04
2019-04-11T12:11:59.817Z,35.22
2019-04-11T12:13:04.397Z,35.34
2019-04-11T12:14:01.918Z,35.31
2019-04-11T12:14:59.806Z,34.82
2019-04-11T12:15:59.804Z,34.95
2019-04-11T12:17:03.228Z,35.26
2019-04-11T12:18:01.803Z,35.16
2019-04-11T12:19:00.547Z,35.12
2019-04-11T12:20:06.518Z,36.63
2019-04-11T12:21:01.053Z,35.78
2019-04-11T12:21:59.972Z,35.66
2019-04-11T12:22:59.694Z,32.60
2019-04-11T12:24:04.447Z,35.02
2019-04-11T12:25:00.685Z,34.50
2019-04-11T12:25:59.675Z,34.58
2019-04-11T12:27:00.099Z,33.65
2019-04-11T12:28:00.415Z,34.78
2019-04-11T12:28:59.722Z,35.29
2019-04-11T12:30:00.542Z,33.25
2019-04-11T12:31:01.900Z,34.77
2019-04-11T12:31:59.875Z,34.78
2019-04-11T12:32:59.587Z,33.79
2019-04-11T12:33:59.821Z,34.72
2019-04-11T12:34:59.861Z,35.02
2019-04-11T12:35:59.564Z,35.34
2019-04-11T12:37:00.103Z,35.46
2019-04-11T12:37:59.964Z,36.69
2019-04-11T12:38:59.521Z,36.92
2019-04-11T12:39:59.562Z,37.65
2019-04-11T12:40:59.512Z,37.79
2019-04-11T12:41:59.489Z,37.80
2019-04-11T12:42:59.473Z,37.92
2019-04-11T12:43:59.468Z,39.78
2019-04-11T12:45:00.121Z,40.00
2019-04-11T12:45:59.496Z,40.32
2019-04-11T12:46:59.432Z,40.34
2019-04-11T12:47:59.469Z,40.99
2019-04-11T12:48:59.408Z,40.50
2019-04-11T12:49:59.465Z,41.75
2019-04-11T12:50:59.434Z,41.75
2019-04-11T12:51:59.400Z,41.34
2019-04-11T12:52:59.368Z,41.85
2019-04-11T12:53:59.355Z,42.16